sensor_id;sensor_type;location;lat;lon;timestamp;noise_LAeq;noise_LA_min;noise_LA_max;noise_LA01;noise_LA95
46393;Laerm;32099;53.588;10.176;2023-03-14T00:00:47;34.93;32.35;39.80;;
46393;Laerm;32099;53.588;10.176;2023-03-14T00:03:12;35.41;32.27;40.50;;
46393;Laerm;32099;53.588;10.176;2023-03-14T00:05:37;36.67;33.65;46.10;;
46393;Laerm;32099;53.588;10.176;2023-03-14T00:08:02;36.29;33.25;39.92;;
46393;Laerm;32099;53.588;10.176;2023-03-14T00:10:28;37.98;33.84;49.66;;
46393;Laerm;32099;53.588;10.176;2023-03-14T00:12:53;38.02;35.21;41.45;;
46393;Laerm;32099;53.588;10.176;2023-03-14T00:15:18;37.00;34.03;41.16;;
46393;Laerm;32099;53.588;10.176;2023-03-14T00:17:44;39.97;33.72;52.63;;
46393;Laerm;32099;53.588;10.176;2023-03-14T00:20:10;37.19;34.67;40.80;;
46393;Laerm;32099;53.588;10.176;2023-03-14T00:22:37;35.87;33.55;44.64;;
46393;Laerm;32099;53.588;10.176;2023-03-14T00:25:04;35.80;33.21;38.90;;
46393;Laerm;32099;53.588;10.176;2023-03-14T00:27:30;36.07;32.83;50.53;;
46393;Laerm;32099;53.588;10.176;2023-03-14T00:29:55;36.57;33.75;44.03;;
46393;Laerm;32099;53.588;10.176;2023-03-14T00:32:21;36.50;33.95;42.32;;
46393;Laerm;32099;53.588;10.176;2023-03-14T00:34:46;36.50;33.29;40.12;;
46393;Laerm;32099;53.588;10.176;2023-03-14T00:37:11;36.13;33.18;40.36;;
46393;Laerm;32099;53.588;10.176;2023-03-14T00:39:36;36.24;33.19;39.95;;
46393;Laerm;32099;53.588;10.176;2023-03-14T00:42:02;37.00;33.87;42.15;;
46393;Laerm;32099;53.588;10.176;2023-03-14T00:44:27;37.41;34.33;43.05;;
46393;Laerm;32099;53.588;10.176;2023-03-14T00:46:52;36.99;33.90;40.73;;
46393;Laerm;32099;53.588;10.176;2023-03-14T00:49:18;37.58;34.29;45.38;;
46393;Laerm;32099;53.588;10.176;2023-03-14T00:51:44;36.24;33.27;40.46;;
46393;Laerm;32099;53.588;10.176;2023-03-14T00:54:09;35.41;33.01;39.57;;
46393;Laerm;32099;53.588;10.176;2023-03-14T00:56:34;35.18;32.56;40.02;;
46393;Laerm;32099;53.588;10.176;2023-03-14T00:59:00;35.08;32.53;39.48;;
46393;Laerm;32099;53.588;10.176;2023-03-14T01:01:25;35.36;32.93;40.17;;
46393;Laerm;32099;53.588;10.176;2023-03-14T01:03:51;43.17;33.05;58.58;;
46393;Laerm;32099;53.588;10.176;2023-03-14T01:06:20;42.06;34.64;53.22;;
46393;Laerm;32099;53.588;10.176;2023-03-14T01:08:46;38.30;35.26;42.04;;
46393;Laerm;32099;53.588;10.176;2023-03-14T01:11:14;37.26;34.33;49.91;;
46393;Laerm;32099;53.588;10.176;2023-03-14T01:13:40;37.59;34.64;45.77;;
46393;Laerm;32099;53.588;10.176;2023-03-14T01:16:08;36.50;33.74;43.29;;
46393;Laerm;32099;53.588;10.176;2023-03-14T01:18:34;35.98;33.39;39.18;;
46393;Laerm;32099;53.588;10.176;2023-03-14T01:21:08;36.79;34.13;48.04;;
46393;Laerm;32099;53.588;10.176;2023-03-14T01:23:34;36.76;33.54;41.69;;
46393;Laerm;32099;53.588;10.176;2023-03-14T01:25:59;37.24;33.94;44.23;;
46393;Laerm;32099;53.588;10.176;2023-03-14T01:28:24;36.09;33.24;47.48;;
46393;Laerm;32099;53.588;10.176;2023-03-14T01:30:50;38.95;33.36;57.20;;
46393;Laerm;32099;53.588;10.176;2023-03-14T01:33:15;37.17;34.15;42.25;;
46393;Laerm;32099;53.588;10.176;2023-03-14T01:35:40;38.95;35.23;51.69;;
46393;Laerm;32099;53.588;10.176;2023-03-14T01:38:06;37.07;33.20;47.08;;
46393;Laerm;32099;53.588;10.176;2023-03-14T01:40:31;36.59;33.49;42.41;;
46393;Laerm;32099;53.588;10.176;2023-03-14T01:42:57;38.22;33.94;49.98;;
46393;Laerm;32099;53.588;10.176;2023-03-14T01:48:28;36.94;34.13;46.59;;
46393;Laerm;32099;53.588;10.176;2023-03-14T01:50:57;37.36;34.20;43.31;;
46393;Laerm;32099;53.588;10.176;2023-03-14T01:53:24;36.50;33.74;40.25;;
46393;Laerm;32099;53.588;10.176;2023-03-14T01:55:52;36.36;33.37;42.25;;
46393;Laerm;32099;53.588;10.176;2023-03-14T01:58:22;35.56;33.19;39.24;;
46393;Laerm;32099;53.588;10.176;2023-03-14T02:00:50;36.56;33.92;42.27;;
46393;Laerm;32099;53.588;10.176;2023-03-14T02:03:17;37.34;33.96;45.38;;
46393;Laerm;32099;53.588;10.176;2023-03-14T02:05:44;38.14;35.03;41.58;;
46393;Laerm;32099;53.588;10.176;2023-03-14T02:08:20;37.76;34.89;40.97;;
46393;Laerm;32099;53.588;10.176;2023-03-14T02:10:50;37.91;34.85;46.44;;
46393;Laerm;32099;53.588;10.176;2023-03-14T02:13:17;37.53;34.53;42.81;;
46393;Laerm;32099;53.588;10.176;2023-03-14T02:15:43;36.85;34.04;41.43;;
46393;Laerm;32099;53.588;10.176;2023-03-14T02:18:09;36.94;33.80;42.71;;
46393;Laerm;32099;53.588;10.176;2023-03-14T02:20:58;36.38;33.55;41.04;;
46393;Laerm;32099;53.588;10.176;2023-03-14T02:23:38;36.26;33.60;39.92;;
46393;Laerm;32099;53.588;10.176;2023-03-14T02:26:16;36.52;33.97;40.95;;
46393;Laerm;32099;53.588;10.176;2023-03-14T02:28:46;36.52;33.55;39.71;;
46393;Laerm;32099;53.588;10.176;2023-03-14T02:31:11;36.59;33.63;43.53;;
46393;Laerm;32099;53.588;10.176;2023-03-14T02:33:38;36.91;34.11;41.05;;
46393;Laerm;32099;53.588;10.176;2023-03-14T02:36:09;36.44;33.82;41.49;;
46393;Laerm;32099;53.588;10.176;2023-03-14T02:39:05;37.07;34.34;44.20;;
46393;Laerm;32099;53.588;10.176;2023-03-14T02:41:34;37.73;34.43;44.68;;
46393;Laerm;32099;53.588;10.176;2023-03-14T02:43:59;37.52;34.35;42.91;;
46393;Laerm;32099;53.588;10.176;2023-03-14T02:46:24;40.59;35.28;54.39;;
46393;Laerm;32099;53.588;10.176;2023-03-14T02:48:53;37.28;33.92;44.41;;
46393;Laerm;32099;53.588;10.176;2023-03-14T02:51:21;36.23;33.83;41.79;;
46393;Laerm;32099;53.588;10.176;2023-03-14T02:53:48;36.18;33.69;41.98;;
46393;Laerm;32099;53.588;10.176;2023-03-14T02:56:13;37.18;34.26;47.42;;
46393;Laerm;32099;53.588;10.176;2023-03-14T02:58:39;39.12;34.09;52.75;;
46393;Laerm;32099;53.588;10.176;2023-03-14T03:01:04;36.81;34.31;42.02;;
46393;Laerm;32099;53.588;10.176;2023-03-14T03:03:29;37.22;34.31;40.95;;
46393;Laerm;32099;53.588;10.176;2023-03-14T03:05:56;37.50;34.79;40.56;;
46393;Laerm;32099;53.588;10.176;2023-03-14T03:08:23;37.32;34.14;40.56;;
46393;Laerm;32099;53.588;10.176;2023-03-14T03:10:49;38.20;34.84;45.40;;
46393;Laerm;32099;53.588;10.176;2023-03-14T03:13:15;37.77;35.12;43.66;;
46393;Laerm;32099;53.588;10.176;2023-03-14T03:15:40;39.00;35.53;43.65;;
46393;Laerm;32099;53.588;10.176;2023-03-14T03:18:05;38.39;35.07;42.97;;
46393;Laerm;32099;53.588;10.176;2023-03-14T03:20:31;41.32;34.92;62.47;;
46393;Laerm;32099;53.588;10.176;2023-03-14T03:22:58;40.43;36.70;49.74;;
46393;Laerm;32099;53.588;10.176;2023-03-14T03:25:23;40.22;37.12;45.79;;
46393;Laerm;32099;53.588;10.176;2023-03-14T03:27:49;40.61;37.86;43.75;;
46393;Laerm;32099;53.588;10.176;2023-03-14T03:30:14;40.92;37.49;46.15;;
46393;Laerm;32099;53.588;10.176;2023-03-14T03:32:40;40.32;37.18;44.41;;
46393;Laerm;32099;53.588;10.176;2023-03-14T03:35:05;39.82;36.55;44.08;;
46393;Laerm;32099;53.588;10.176;2023-03-14T03:37:32;39.11;36.16;43.20;;
46393;Laerm;32099;53.588;10.176;2023-03-14T03:39:57;39.12;36.18;49.87;;
46393;Laerm;32099;53.588;10.176;2023-03-14T03:42:23;39.16;35.52;51.10;;
46393;Laerm;32099;53.588;10.176;2023-03-14T03:44:48;41.67;36.63;53.56;;
46393;Laerm;32099;53.588;10.176;2023-03-14T03:47:14;38.65;35.39;47.77;;
46393;Laerm;32099;53.588;10.176;2023-03-14T03:49:40;40.82;36.48;53.77;;
46393;Laerm;32099;53.588;10.176;2023-03-14T03:52:05;40.19;35.96;47.57;;
46393;Laerm;32099;53.588;10.176;2023-03-14T03:54:30;39.65;36.09;51.82;;
46393;Laerm;32099;53.588;10.176;2023-03-14T03:56:56;40.31;36.06;49.10;;
46393;Laerm;32099;53.588;10.176;2023-03-14T03:59:21;40.94;36.64;47.26;;
46393;Laerm;32099;53.588;10.176;2023-03-14T04:01:46;40.48;36.95;47.38;;
46393;Laerm;32099;53.588;10.176;2023-03-14T04:04:13;41.16;37.09;50.62;;
46393;Laerm;32099;53.588;10.176;2023-03-14T04:06:38;42.90;38.13;57.31;;
46393;Laerm;32099;53.588;10.176;2023-03-14T04:09:03;46.46;38.05;62.92;;
46393;Laerm;32099;53.588;10.176;2023-03-14T04:11:29;43.74;38.30;54.44;;
46393;Laerm;32099;53.588;10.176;2023-03-14T04:13:54;43.48;37.86;60.91;;
46393;Laerm;32099;53.588;10.176;2023-03-14T04:16:24;42.74;38.15;52.79;;
46393;Laerm;32099;53.588;10.176;2023-03-14T04:18:50;42.69;37.96;55.95;;
46393;Laerm;32099;53.588;10.176;2023-03-14T04:21:16;45.99;37.87;63.77;;
46393;Laerm;32099;53.588;10.176;2023-03-14T04:23:42;43.07;38.22;55.50;;
46393;Laerm;32099;53.588;10.176;2023-03-14T04:26:07;44.70;38.09;55.23;;
46393;Laerm;32099;53.588;10.176;2023-03-14T04:28:32;44.58;38.34;56.15;;
46393;Laerm;32099;53.588;10.176;2023-03-14T04:30:58;44.86;38.35;57.16;;
46393;Laerm;32099;53.588;10.176;2023-03-14T04:33:23;45.34;38.91;57.73;;
46393;Laerm;32099;53.588;10.176;2023-03-14T04:35:49;47.28;39.23;64.68;;
46393;Laerm;32099;53.588;10.176;2023-03-14T04:38:15;45.21;38.39;57.56;;
46393;Laerm;32099;53.588;10.176;2023-03-14T04:40:41;46.97;38.23;60.45;;
46393;Laerm;32099;53.588;10.176;2023-03-14T04:43:08;47.07;38.91;61.73;;
46393;Laerm;32099;53.588;10.176;2023-03-14T04:45:34;49.85;38.97;67.68;;
46393;Laerm;32099;53.588;10.176;2023-03-14T04:48:00;46.97;39.22;62.22;;
46393;Laerm;32099;53.588;10.176;2023-03-14T04:50:25;49.18;39.80;66.64;;
46393;Laerm;32099;53.588;10.176;2023-03-14T04:52:50;45.45;38.94;56.95;;
46393;Laerm;32099;53.588;10.176;2023-03-14T04:55:16;45.79;39.10;60.10;;
46393;Laerm;32099;53.588;10.176;2023-03-14T04:57:41;53.66;39.15;67.73;;
46393;Laerm;32099;53.588;10.176;2023-03-14T05:00:07;48.66;39.16;64.53;;
46393;Laerm;32099;53.588;10.176;2023-03-14T05:02:33;53.30;39.32;74.04;;
46393;Laerm;32099;53.588;10.176;2023-03-14T05:04:58;49.57;39.07;66.27;;
46393;Laerm;32099;53.588;10.176;2023-03-14T05:07:24;53.47;40.26;75.08;;
46393;Laerm;32099;53.588;10.176;2023-03-14T05:09:49;42.81;38.80;51.05;;
46393;Laerm;32099;53.588;10.176;2023-03-14T05:12:14;44.48;39.07;58.34;;
46393;Laerm;32099;53.588;10.176;2023-03-14T05:14:39;47.18;39.46;63.66;;
46393;Laerm;32099;53.588;10.176;2023-03-14T05:17:05;43.56;39.57;58.98;;
46393;Laerm;32099;53.588;10.176;2023-03-14T05:19:30;46.85;39.16;65.33;;
46393;Laerm;32099;53.588;10.176;2023-03-14T05:21:56;51.96;39.68;69.84;;
46393;Laerm;32099;53.588;10.176;2023-03-14T05:24:22;48.65;42.12;61.42;;
46393;Laerm;32099;53.588;10.176;2023-03-14T05:26:47;51.24;39.48;68.28;;
46393;Laerm;32099;53.588;10.176;2023-03-14T05:29:12;47.33;39.59;65.05;;
46393;Laerm;32099;53.588;10.176;2023-03-14T05:31:38;49.14;40.00;69.49;;
46393;Laerm;32099;53.588;10.176;2023-03-14T05:34:03;44.28;39.68;53.03;;
46393;Laerm;32099;53.588;10.176;2023-03-14T05:36:28;50.06;39.50;70.90;;
46393;Laerm;32099;53.588;10.176;2023-03-14T05:38:53;46.78;39.47;55.44;;
46393;Laerm;32099;53.588;10.176;2023-03-14T05:41:19;44.73;37.73;55.89;;
46393;Laerm;32099;53.588;10.176;2023-03-14T05:43:45;46.94;38.36;61.91;;
46393;Laerm;32099;53.588;10.176;2023-03-14T05:46:11;51.11;40.29;68.29;;
46393;Laerm;32099;53.588;10.176;2023-03-14T05:48:36;48.25;40.04;64.19;;
46393;Laerm;32099;53.588;10.176;2023-03-14T05:51:01;51.92;39.53;69.03;;
46393;Laerm;32099;53.588;10.176;2023-03-14T05:53:27;52.14;40.11;70.67;;
46393;Laerm;32099;53.588;10.176;2023-03-14T05:55:54;49.19;39.95;68.92;;
46393;Laerm;32099;53.588;10.176;2023-03-14T05:58:20;43.18;39.25;50.62;;
46393;Laerm;32099;53.588;10.176;2023-03-14T06:00:45;51.08;39.39;66.65;;
46393;Laerm;32099;53.588;10.176;2023-03-14T06:03:10;50.67;39.45;71.23;;
46393;Laerm;32099;53.588;10.176;2023-03-14T06:05:36;51.58;39.88;68.92;;
46393;Laerm;32099;53.588;10.176;2023-03-14T06:08:01;53.26;39.41;71.22;;
46393;Laerm;32099;53.588;10.176;2023-03-14T06:10:26;45.69;38.51;60.20;;
46393;Laerm;32099;53.588;10.176;2023-03-14T06:12:51;54.55;38.97;73.51;;
46393;Laerm;32099;53.588;10.176;2023-03-14T06:15:17;45.34;40.44;53.30;;
46393;Laerm;32099;53.588;10.176;2023-03-14T06:17:42;54.36;40.95;73.03;;
46393;Laerm;32099;53.588;10.176;2023-03-14T06:20:09;44.11;40.18;53.21;;
46393;Laerm;32099;53.588;10.176;2023-03-14T06:22:34;43.85;40.28;50.69;;
46393;Laerm;32099;53.588;10.176;2023-03-14T06:24:59;49.75;39.84;76.07;;
46393;Laerm;32099;53.588;10.176;2023-03-14T06:27:25;54.65;40.31;72.10;;
46393;Laerm;32099;53.588;10.176;2023-03-14T06:29:50;49.57;39.54;68.86;;
46393;Laerm;32099;53.588;10.176;2023-03-14T06:32:15;48.90;40.09;67.97;;
46393;Laerm;32099;53.588;10.176;2023-03-14T06:34:41;48.26;40.63;66.09;;
46393;Laerm;32099;53.588;10.176;2023-03-14T06:37:06;53.24;40.39;69.09;;
46393;Laerm;32099;53.588;10.176;2023-03-14T06:39:31;49.52;40.86;67.37;;
46393;Laerm;32099;53.588;10.176;2023-03-14T06:41:57;50.19;39.75;70.02;;
46393;Laerm;32099;53.588;10.176;2023-03-14T06:44:22;53.14;39.99;68.10;;
46393;Laerm;32099;53.588;10.176;2023-03-14T06:46:47;50.34;40.60;67.52;;
46393;Laerm;32099;53.588;10.176;2023-03-14T06:49:12;53.52;40.83;71.18;;
46393;Laerm;32099;53.588;10.176;2023-03-14T06:51:38;47.30;42.22;62.07;;
46393;Laerm;32099;53.588;10.176;2023-03-14T06:54:03;56.62;42.37;80.77;;
46393;Laerm;32099;53.588;10.176;2023-03-14T06:56:28;44.59;40.76;55.38;;
46393;Laerm;32099;53.588;10.176;2023-03-14T06:58:54;54.42;41.22;71.51;;
46393;Laerm;32099;53.588;10.176;2023-03-14T07:01:24;50.42;42.58;68.11;;
46393;Laerm;32099;53.588;10.176;2023-03-14T07:03:50;52.33;41.74;67.90;;
46393;Laerm;32099;53.588;10.176;2023-03-14T07:06:15;52.94;42.70;70.88;;
46393;Laerm;32099;53.588;10.176;2023-03-14T07:08:40;74.30;45.00;97.33;;
46393;Laerm;32099;53.588;10.176;2023-03-14T07:11:07;65.82;43.77;83.54;;
46393;Laerm;32099;53.588;10.176;2023-03-14T07:13:32;47.46;42.12;62.23;;
46393;Laerm;32099;53.588;10.176;2023-03-14T07:15:57;52.55;42.71;69.61;;
46393;Laerm;32099;53.588;10.176;2023-03-14T07:18:22;52.93;42.62;71.15;;
46393;Laerm;32099;53.588;10.176;2023-03-14T07:20:48;53.88;42.06;69.36;;
46393;Laerm;32099;53.588;10.176;2023-03-14T07:23:13;53.31;42.41;71.38;;
46393;Laerm;32099;53.588;10.176;2023-03-14T07:25:38;51.07;41.17;69.75;;
46393;Laerm;32099;53.588;10.176;2023-03-14T07:28:04;48.16;41.45;72.12;;
46393;Laerm;32099;53.588;10.176;2023-03-14T07:30:29;55.95;38.80;75.87;;
46393;Laerm;32099;53.588;10.176;2023-03-14T07:32:54;55.04;40.02;72.78;;
46393;Laerm;32099;53.588;10.176;2023-03-14T07:35:20;55.46;41.09;70.51;;
46393;Laerm;32099;53.588;10.176;2023-03-14T07:37:45;55.93;40.82;73.10;;
46393;Laerm;32099;53.588;10.176;2023-03-14T07:40:10;53.89;40.64;69.93;;
46393;Laerm;32099;53.588;10.176;2023-03-14T07:42:39;53.60;40.85;72.70;;
46393;Laerm;32099;53.588;10.176;2023-03-14T07:45:05;47.10;41.16;59.62;;
46393;Laerm;32099;53.588;10.176;2023-03-14T07:47:31;45.65;41.12;54.16;;
46393;Laerm;32099;53.588;10.176;2023-03-14T07:49:56;50.35;41.74;69.30;;
46393;Laerm;32099;53.588;10.176;2023-03-14T07:52:21;46.75;42.31;53.14;;
46393;Laerm;32099;53.588;10.176;2023-03-14T07:54:46;46.17;40.88;56.04;;
46393;Laerm;32099;53.588;10.176;2023-03-14T07:57:12;51.18;42.18;68.30;;
46393;Laerm;32099;53.588;10.176;2023-03-14T07:59:37;54.13;42.22;74.29;;
46393;Laerm;32099;53.588;10.176;2023-03-14T08:02:02;52.46;40.78;68.50;;
46393;Laerm;32099;53.588;10.176;2023-03-14T08:04:30;53.98;42.42;73.13;;
46393;Laerm;32099;53.588;10.176;2023-03-14T08:06:55;54.90;42.64;69.45;;
46393;Laerm;32099;53.588;10.176;2023-03-14T08:09:21;53.75;41.26;68.85;;
46393;Laerm;32099;53.588;10.176;2023-03-14T08:11:46;47.65;42.84;63.81;;
46393;Laerm;32099;53.588;10.176;2023-03-14T08:14:11;54.27;42.23;67.47;;
46393;Laerm;32099;53.588;10.176;2023-03-14T08:16:37;53.81;41.62;72.71;;
46393;Laerm;32099;53.588;10.176;2023-03-14T08:19:02;49.27;41.41;70.71;;
46393;Laerm;32099;53.588;10.176;2023-03-14T08:21:27;52.82;39.68;69.20;;
46393;Laerm;32099;53.588;10.176;2023-03-14T08:23:52;50.11;39.91;65.97;;
46393;Laerm;32099;53.588;10.176;2023-03-14T08:26:18;56.03;41.17;70.58;;
46393;Laerm;32099;53.588;10.176;2023-03-14T08:28:43;46.57;40.29;61.13;;
46393;Laerm;32099;53.588;10.176;2023-03-14T08:31:08;52.37;40.60;66.15;;
46393;Laerm;32099;53.588;10.176;2023-03-14T08:33:33;52.41;41.60;71.45;;
46393;Laerm;32099;53.588;10.176;2023-03-14T08:36:00;44.91;39.59;60.20;;
46393;Laerm;32099;53.588;10.176;2023-03-14T08:38:26;53.06;40.67;70.28;;
46393;Laerm;32099;53.588;10.176;2023-03-14T08:40:58;48.14;40.54;64.60;;
46393;Laerm;32099;53.588;10.176;2023-03-14T08:43:23;49.13;40.30;68.11;;
46393;Laerm;32099;53.588;10.176;2023-03-14T08:45:48;48.68;40.83;65.05;;
46393;Laerm;32099;53.588;10.176;2023-03-14T08:48:14;53.80;40.18;69.36;;
46393;Laerm;32099;53.588;10.176;2023-03-14T08:50:39;49.35;40.57;63.85;;
46393;Laerm;32099;53.588;10.176;2023-03-14T08:53:04;53.12;41.94;70.13;;
46393;Laerm;32099;53.588;10.176;2023-03-14T08:55:30;45.58;40.73;61.57;;
46393;Laerm;32099;53.588;10.176;2023-03-14T08:57:56;52.60;41.00;71.39;;
46393;Laerm;32099;53.588;10.176;2023-03-14T09:00:21;52.70;40.28;69.63;;
46393;Laerm;32099;53.588;10.176;2023-03-14T09:02:47;52.80;40.29;72.45;;
46393;Laerm;32099;53.588;10.176;2023-03-14T09:05:12;57.38;40.03;79.22;;
46393;Laerm;32099;53.588;10.176;2023-03-14T09:07:38;45.85;39.99;59.85;;
46393;Laerm;32099;53.588;10.176;2023-03-14T09:10:04;52.26;39.79;69.08;;
46393;Laerm;32099;53.588;10.176;2023-03-14T09:12:30;48.85;40.55;64.76;;
46393;Laerm;32099;53.588;10.176;2023-03-14T09:14:55;51.75;39.93;68.33;;
46393;Laerm;32099;53.588;10.176;2023-03-14T09:17:21;47.52;40.00;61.48;;
46393;Laerm;32099;53.588;10.176;2023-03-14T09:19:46;51.71;40.83;67.38;;
46393;Laerm;32099;53.588;10.176;2023-03-14T09:22:11;52.43;40.79;66.76;;
46393;Laerm;32099;53.588;10.176;2023-03-14T09:24:37;52.41;41.36;69.10;;
46393;Laerm;32099;53.588;10.176;2023-03-14T09:27:02;50.60;40.85;68.45;;
46393;Laerm;32099;53.588;10.176;2023-03-14T09:29:27;53.38;39.92;71.76;;
46393;Laerm;32099;53.588;10.176;2023-03-14T09:31:52;53.17;40.03;69.20;;
46393;Laerm;32099;53.588;10.176;2023-03-14T09:34:18;50.61;38.87;69.29;;
46393;Laerm;32099;53.588;10.176;2023-03-14T09:36:44;52.01;40.48;70.32;;
46393;Laerm;32099;53.588;10.176;2023-03-14T09:39:10;46.28;40.14;65.75;;
46393;Laerm;32099;53.588;10.176;2023-03-14T09:41:38;54.87;39.59;71.67;;
46393;Laerm;32099;53.588;10.176;2023-03-14T09:44:12;55.19;39.76;69.35;;
46393;Laerm;32099;53.588;10.176;2023-03-14T09:46:39;53.50;40.63;69.12;;
46393;Laerm;32099;53.588;10.176;2023-03-14T09:49:18;49.44;40.57;67.99;;
46393;Laerm;32099;53.588;10.176;2023-03-14T09:51:46;49.70;40.60;66.92;;
46393;Laerm;32099;53.588;10.176;2023-03-14T09:54:43;52.17;42.52;71.31;;
46393;Laerm;32099;53.588;10.176;2023-03-14T09:57:18;53.28;41.79;73.63;;
46393;Laerm;32099;53.588;10.176;2023-03-14T09:59:45;49.84;41.45;67.00;;
46393;Laerm;32099;53.588;10.176;2023-03-14T10:02:26;52.28;43.97;71.44;;
46393;Laerm;32099;53.588;10.176;2023-03-14T10:04:54;53.50;43.02;69.24;;
46393;Laerm;32099;53.588;10.176;2023-03-14T10:07:30;51.88;41.74;68.50;;
46393;Laerm;32099;53.588;10.176;2023-03-14T10:09:57;51.51;43.38;57.50;;
46393;Laerm;32099;53.588;10.176;2023-03-14T10:12:33;52.34;40.90;68.13;;
46393;Laerm;32099;53.588;10.176;2023-03-14T10:15:04;56.28;40.65;73.36;;
46393;Laerm;32099;53.588;10.176;2023-03-14T10:17:42;51.90;40.34;76.22;;
46393;Laerm;32099;53.588;10.176;2023-03-14T10:20:26;55.38;41.09;77.79;;
46393;Laerm;32099;53.588;10.176;2023-03-14T10:22:57;52.51;39.74;70.38;;
46393;Laerm;32099;53.588;10.176;2023-03-14T10:25:37;50.93;38.54;67.11;;
46393;Laerm;32099;53.588;10.176;2023-03-14T10:28:04;57.37;39.92;71.63;;
46393;Laerm;32099;53.588;10.176;2023-03-14T10:30:37;45.88;40.23;66.41;;
46393;Laerm;32099;53.588;10.176;2023-03-14T10:33:20;50.52;40.44;69.01;;
46393;Laerm;32099;53.588;10.176;2023-03-14T10:35:57;51.50;40.19;68.65;;
46393;Laerm;32099;53.588;10.176;2023-03-14T10:38:35;52.97;39.46;69.61;;
46393;Laerm;32099;53.588;10.176;2023-03-14T10:41:01;54.15;38.88;72.02;;
46393;Laerm;32099;53.588;10.176;2023-03-14T10:43:32;50.84;40.00;67.89;;
46393;Laerm;32099;53.588;10.176;2023-03-14T10:46:23;44.31;39.29;55.40;;
46393;Laerm;32099;53.588;10.176;2023-03-14T10:48:46;49.75;39.95;69.53;;
46393;Laerm;32099;53.588;10.176;2023-03-14T10:53:43;48.89;41.37;60.24;;
46393;Laerm;32099;53.588;10.176;2023-03-14T10:56:18;56.88;44.48;73.64;;
46393;Laerm;32099;53.588;10.176;2023-03-14T10:58:46;47.40;41.42;57.45;;
46393;Laerm;32099;53.588;10.176;2023-03-14T11:01:23;46.02;42.35;54.92;;
46393;Laerm;32099;53.588;10.176;2023-03-14T11:06:47;50.82;38.29;69.45;;
46393;Laerm;32099;53.588;10.176;2023-03-14T11:11:46;55.49;39.49;72.20;;
46393;Laerm;32099;53.588;10.176;2023-03-14T11:14:18;49.86;40.51;67.35;;
46393;Laerm;32099;53.588;10.176;2023-03-14T11:17:05;57.92;42.65;74.61;;
46393;Laerm;32099;53.588;10.176;2023-03-14T11:22:40;50.01;38.51;69.77;;
46393;Laerm;32099;53.588;10.176;2023-03-14T11:28:17;54.69;38.72;72.05;;
46393;Laerm;32099;53.588;10.176;2023-03-14T11:31:21;51.11;38.11;68.25;;
46393;Laerm;32099;53.588;10.176;2023-03-14T11:36:29;49.33;38.05;66.50;;
46393;Laerm;32099;53.588;10.176;2023-03-14T11:38:57;45.71;39.36;56.36;;
46393;Laerm;32099;53.588;10.176;2023-03-14T11:41:33;43.58;38.77;50.24;;
46393;Laerm;32099;53.588;10.176;2023-03-14T11:44:04;52.85;40.13;70.30;;
46393;Laerm;32099;53.588;10.176;2023-03-14T11:46:39;51.51;39.90;66.23;;
46393;Laerm;32099;53.588;10.176;2023-03-14T11:49:24;50.49;38.17;68.84;;
46393;Laerm;32099;53.588;10.176;2023-03-14T11:51:56;54.28;38.49;74.12;;
46393;Laerm;32099;53.588;10.176;2023-03-14T11:54:34;56.06;39.53;74.33;;
46393;Laerm;32099;53.588;10.176;2023-03-14T11:57:09;54.07;37.65;68.93;;
46393;Laerm;32099;53.588;10.176;2023-03-14T12:00:13;56.11;38.45;72.56;;
46393;Laerm;32099;53.588;10.176;2023-03-14T12:02:48;57.70;37.87;76.42;;
46393;Laerm;32099;53.588;10.176;2023-03-14T12:05:53;52.02;38.80;69.56;;
46393;Laerm;32099;53.588;10.176;2023-03-14T12:08:37;44.49;36.25;60.95;;
46393;Laerm;32099;53.588;10.176;2023-03-14T12:13:46;56.84;38.34;73.54;;
46393;Laerm;32099;53.588;10.176;2023-03-14T12:16:37;49.78;38.26;67.26;;
46393;Laerm;32099;53.588;10.176;2023-03-14T12:21:48;50.24;37.38;67.73;;
46393;Laerm;32099;53.588;10.176;2023-03-14T12:24:34;53.13;36.82;69.40;;
46393;Laerm;32099;53.588;10.176;2023-03-14T12:27:03;49.64;35.87;67.24;;
46393;Laerm;32099;53.588;10.176;2023-03-14T12:29:29;43.14;37.61;56.75;;
46393;Laerm;32099;53.588;10.176;2023-03-14T12:34:44;56.33;37.86;71.80;;
46393;Laerm;32099;53.588;10.176;2023-03-14T12:39:59;54.12;36.93;69.07;;
46393;Laerm;32099;53.588;10.176;2023-03-14T12:50:15;41.11;35.80;51.74;;
46393;Laerm;32099;53.588;10.176;2023-03-14T12:52:57;53.73;40.77;68.17;;
46393;Laerm;32099;53.588;10.176;2023-03-14T12:55:46;54.53;39.20;70.76;;
46393;Laerm;32099;53.588;10.176;2023-03-14T12:58:35;43.76;37.55;52.95;;
46393;Laerm;32099;53.588;10.176;2023-03-14T13:01:06;42.91;37.06;55.34;;
46393;Laerm;32099;53.588;10.176;2023-03-14T13:03:50;47.71;36.93;65.51;;
46393;Laerm;32099;53.588;10.176;2023-03-14T13:12:00;48.99;36.58;65.07;;
46393;Laerm;32099;53.588;10.176;2023-03-14T13:14:28;48.17;36.18;63.62;;
46393;Laerm;32099;53.588;10.176;2023-03-14T13:16:54;53.54;37.68;67.10;;
46393;Laerm;32099;53.588;10.176;2023-03-14T13:19:24;52.03;35.55;72.76;;
46393;Laerm;32099;53.588;10.176;2023-03-14T13:21:50;54.79;35.67;77.01;;
46393;Laerm;32099;53.588;10.176;2023-03-14T13:24:24;49.17;36.02;70.48;;
46393;Laerm;32099;53.588;10.176;2023-03-14T13:26:52;53.03;38.07;70.45;;
46393;Laerm;32099;53.588;10.176;2023-03-14T13:29:24;50.29;39.00;75.51;;
46393;Laerm;32099;53.588;10.176;2023-03-14T13:31:52;43.78;36.45;60.40;;
46393;Laerm;32099;53.588;10.176;2023-03-14T13:34:19;42.38;37.18;49.13;;
46393;Laerm;32099;53.588;10.176;2023-03-14T13:36:44;41.89;37.26;52.05;;
46393;Laerm;32099;53.588;10.176;2023-03-14T13:39:13;48.79;39.49;67.52;;
46393;Laerm;32099;53.588;10.176;2023-03-14T13:41:40;50.98;40.48;66.16;;
46393;Laerm;32099;53.588;10.176;2023-03-14T13:44:08;46.29;40.40;53.98;;
46393;Laerm;32099;53.588;10.176;2023-03-14T13:46:38;46.33;37.22;65.55;;
46393;Laerm;32099;53.588;10.176;2023-03-14T13:49:12;52.89;38.49;71.35;;
46393;Laerm;32099;53.588;10.176;2023-03-14T13:51:41;53.33;36.97;73.85;;
46393;Laerm;32099;53.588;10.176;2023-03-14T13:54:17;49.08;38.92;66.78;;
46393;Laerm;32099;53.588;10.176;2023-03-14T13:56:43;44.02;37.68;54.81;;
46393;Laerm;32099;53.588;10.176;2023-03-14T13:59:32;47.15;38.60;67.64;;
46393;Laerm;32099;53.588;10.176;2023-03-14T14:02:01;50.15;38.75;70.70;;
46393;Laerm;32099;53.588;10.176;2023-03-14T14:04:32;47.45;37.50;67.42;;
46393;Laerm;32099;53.588;10.176;2023-03-14T14:06:59;47.54;36.57;68.55;;
46393;Laerm;32099;53.588;10.176;2023-03-14T14:09:28;48.52;35.34;66.43;;
46393;Laerm;32099;53.588;10.176;2023-03-14T14:11:59;39.38;33.41;54.16;;
46393;Laerm;32099;53.588;10.176;2023-03-14T14:14:32;51.59;33.61;69.14;;
46393;Laerm;32099;53.588;10.176;2023-03-14T14:16:59;44.53;35.51;56.06;;
46393;Laerm;32099;53.588;10.176;2023-03-14T14:19:28;44.06;32.95;62.75;;
46393;Laerm;32099;53.588;10.176;2023-03-14T14:21:56;47.60;37.05;59.43;;